FMEP/ZSE METAR and TAF weather

Enter ICAO airport designator
Station Type Date Time Source
FMEP METAR 2018/12/11 00:30 UTC NOAA

FMEP 110030Z AUTO 04006KT CAVOK 25/18 Q1014


Station Type Date Time Source
FMEP Decoded METAR 2018/12/11 00:30 UTC NOAA

Saint-Pierre, Reunion (FMEP) 21-20S 055-29E 53M
Dec 10, 2018 - 07:30 PM EST / 2018.12.11 0030 UTC
Wind: from the NE (040 degrees) at 7 MPH (6 KT):0
Visibility: greater than 7 mile(s):0
Temperature: 77 F (25 C)
Dew Point: 64 F (18 C)
Relative Humidity: 65%
Pressure (altimeter): 29.94 in. Hg (1014 hPa)
ob: FMEP 110030Z AUTO 04006KT CAVOK 25/18 Q1014
cycle: 0

Station Type Date Time Source
FMEP TAF 2018/07/05 06:24 UTC NOAA

TAF
AMD TAF FMEP 050618Z 0506/0515 12018G30KT 9999 FEW030


Example: see airport list